createdAt,value
2022-08-29T00:00:17.720Z,3.00
2022-08-29T00:01:11.673Z,2.80
2022-08-29T00:02:11.645Z,2.80
2022-08-29T00:03:11.656Z,2.80
2022-08-29T00:04:11.718Z,2.90
2022-08-29T00:05:11.635Z,2.90
2022-08-29T00:06:11.617Z,3.00
2022-08-29T00:07:11.587Z,3.20
2022-08-29T00:08:11.560Z,2.80
2022-08-29T00:09:11.546Z,2.80
2022-08-29T00:10:11.557Z,2.80
2022-08-29T00:11:11.512Z,3.00
2022-08-29T00:12:11.492Z,2.70
2022-08-29T00:13:11.492Z,2.80
2022-08-29T00:14:20.860Z,2.70
2022-08-29T00:15:11.468Z,2.70
2022-08-29T00:16:11.510Z,3.10
2022-08-29T00:17:11.418Z,2.80
2022-08-29T00:18:11.406Z,2.80
2022-08-29T00:19:11.440Z,2.20
2022-08-29T00:20:11.444Z,2.80
2022-08-29T00:21:11.403Z,2.20
2022-08-29T00:22:11.359Z,2.90
2022-08-29T00:23:11.354Z,2.90
2022-08-29T00:24:11.440Z,3.10
2022-08-29T00:25:11.349Z,3.00
2022-08-29T00:26:11.305Z,2.60
2022-08-29T00:27:11.331Z,2.90
2022-08-29T00:28:11.292Z,2.60
2022-08-29T00:29:11.267Z,2.90
2022-08-29T00:30:11.253Z,2.70
2022-08-29T00:31:11.280Z,2.90
2022-08-29T00:32:11.233Z,2.50
2022-08-29T00:33:11.236Z,2.40
2022-08-29T00:34:11.224Z,2.80
2022-08-29T00:35:11.246Z,2.90
2022-08-29T00:36:11.211Z,3.00
2022-08-29T00:37:11.218Z,2.80
2022-08-29T00:38:11.254Z,2.70
2022-08-29T00:39:11.151Z,2.50
2022-08-29T00:40:11.173Z,3.00
2022-08-29T00:41:11.135Z,3.00
2022-08-29T00:42:11.124Z,3.30
2022-08-29T00:43:11.123Z,3.30
2022-08-29T00:44:11.109Z,3.40
2022-08-29T00:45:11.061Z,3.10
2022-08-29T00:46:11.300Z,3.30
2022-08-29T00:47:11.031Z,3.10
2022-08-29T00:48:11.067Z,2.90
2022-08-29T00:49:11.014Z,3.00
2022-08-29T00:50:11.000Z,3.20
2022-08-29T00:51:10.996Z,2.90
2022-08-29T00:52:10.984Z,2.50
2022-08-29T00:53:11.003Z,3.00
2022-08-29T00:54:10.940Z,3.00
2022-08-29T00:55:10.949Z,2.40
2022-08-29T00:56:10.912Z,2.60
2022-08-29T00:57:10.910Z,2.60
2022-08-29T00:58:11.753Z,3.00
2022-08-29T00:59:10.897Z,2.80
2022-08-29T01:00:10.920Z,2.60
2022-08-29T01:01:10.957Z,2.30
2022-08-29T01:02:10.964Z,2.80
2022-08-29T01:03:10.819Z,2.40
2022-08-29T01:04:15.837Z,3.00
2022-08-29T01:05:10.821Z,2.90
2022-08-29T01:06:10.789Z,2.50
2022-08-29T01:07:10.769Z,2.90
2022-08-29T01:08:10.783Z,2.60
2022-08-29T01:09:10.738Z,2.40
2022-08-29T01:10:13.181Z,2.40
2022-08-29T01:11:10.718Z,2.10
2022-08-29T01:12:10.729Z,2.70
2022-08-29T01:13:10.697Z,2.50
2022-08-29T01:14:10.682Z,2.50
2022-08-29T01:15:10.708Z,2.60
2022-08-29T01:16:10.752Z,2.40
2022-08-29T01:17:10.693Z,2.20
2022-08-29T01:18:10.732Z,2.20
2022-08-29T01:19:10.612Z,2.10
2022-08-29T01:20:10.607Z,2.30
2022-08-29T01:21:10.577Z,2.30
2022-08-29T01:22:10.587Z,2.40
2022-08-29T01:23:10.601Z,2.40
2022-08-29T01:24:10.560Z,2.20
2022-08-29T01:25:10.535Z,2.90
2022-08-29T01:26:10.578Z,2.50
2022-08-29T01:27:10.486Z,2.20
2022-08-29T01:28:10.664Z,2.30
2022-08-29T01:29:10.470Z,2.60
2022-08-29T01:30:10.471Z,2.20
2022-08-29T01:31:10.548Z,2.50
2022-08-29T01:32:10.470Z,1.90
2022-08-29T01:33:10.468Z,2.10
2022-08-29T01:34:10.475Z,2.50
2022-08-29T01:35:10.405Z,2.60
2022-08-29T01:36:10.388Z,2.40
2022-08-29T01:37:10.434Z,2.50
2022-08-29T01:38:15.443Z,2.20
2022-08-29T01:39:10.431Z,2.10
2022-08-29T01:40:10.408Z,1.90
2022-08-29T01:41:10.338Z,2.00
2022-08-29T01:42:10.315Z,2.30
2022-08-29T01:43:10.287Z,2.10
2022-08-29T01:44:10.277Z,2.30
2022-08-29T01:45:10.374Z,2.60
2022-08-29T01:46:10.298Z,2.40
2022-08-29T01:47:10.253Z,2.10
2022-08-29T01:48:10.267Z,2.50
2022-08-29T01:49:10.400Z,2.30
2022-08-29T01:50:11.071Z,2.10
2022-08-29T01:51:10.180Z,2.20
2022-08-29T01:52:11.071Z,1.90
2022-08-29T01:53:10.170Z,2.10
2022-08-29T01:54:10.148Z,2.10
2022-08-29T01:55:10.794Z,2.40
2022-08-29T01:56:10.123Z,2.40
2022-08-29T01:57:12.981Z,2.40
2022-08-29T01:58:10.119Z,2.00
2022-08-29T01:59:10.074Z,2.10
2022-08-29T02:00:10.100Z,2.30
2022-08-29T02:01:10.206Z,2.30
2022-08-29T02:02:10.087Z,2.30
2022-08-29T02:03:10.020Z,1.90
2022-08-29T02:04:10.133Z,2.10
2022-08-29T02:05:09.998Z,1.90
2022-08-29T02:06:10.015Z,2.10
2022-08-29T02:07:12.688Z,2.00
2022-08-29T02:08:09.956Z,2.30
2022-08-29T02:09:11.224Z,2.10
2022-08-29T02:10:10.692Z,2.10
2022-08-29T02:11:09.946Z,2.40
2022-08-29T02:12:09.925Z,2.10
2022-08-29T02:13:09.927Z,2.10
2022-08-29T02:14:19.053Z,2.50
2022-08-29T02:15:09.902Z,2.10
2022-08-29T02:16:09.937Z,2.10
2022-08-29T02:17:09.876Z,2.20
2022-08-29T02:18:09.853Z,2.70
2022-08-29T02:19:10.727Z,2.30
2022-08-29T02:20:09.812Z,2.20
2022-08-29T02:21:09.848Z,2.60
2022-08-29T02:22:09.797Z,2.10
2022-08-29T02:23:27.153Z,2.20
2022-08-29T02:24:24.403Z,1.90
2022-08-29T02:25:10.087Z,2.30
2022-08-29T02:26:09.739Z,2.40
2022-08-29T02:27:09.757Z,2.00
2022-08-29T02:28:09.711Z,2.10
2022-08-29T02:29:09.711Z,2.10
2022-08-29T02:30:09.791Z,1.70
2022-08-29T02:31:09.729Z,2.10
2022-08-29T02:32:09.669Z,2.00
2022-08-29T02:33:09.829Z,2.10
2022-08-29T02:34:09.612Z,2.10
2022-08-29T02:35:09.628Z,2.50
2022-08-29T02:36:09.593Z,2.10
2022-08-29T02:37:09.601Z,2.20
2022-08-29T02:38:09.562Z,2.30
2022-08-29T02:39:09.542Z,2.20
2022-08-29T02:40:09.639Z,1.80
2022-08-29T02:41:14.019Z,1.80
2022-08-29T02:42:09.519Z,2.50
2022-08-29T02:43:09.538Z,2.00
2022-08-29T02:44:10.291Z,2.00
2022-08-29T02:45:09.478Z,2.40
2022-08-29T02:46:09.474Z,2.20
2022-08-29T02:47:09.737Z,2.60
2022-08-29T02:48:09.425Z,2.30
2022-08-29T02:49:09.665Z,2.30
2022-08-29T02:50:09.405Z,2.20
2022-08-29T02:51:09.428Z,2.10
2022-08-29T02:52:09.390Z,2.00
2022-08-29T02:53:09.370Z,2.30
2022-08-29T02:54:09.337Z,2.00
2022-08-29T02:55:09.339Z,2.10
2022-08-29T02:56:09.320Z,2.30
2022-08-29T02:57:09.326Z,2.30
2022-08-29T02:58:09.315Z,2.00
2022-08-29T02:59:09.428Z,2.40
2022-08-29T03:00:09.287Z,2.60
2022-08-29T03:01:09.370Z,2.70
2022-08-29T03:02:09.296Z,2.30
2022-08-29T03:03:09.268Z,2.20
2022-08-29T03:04:09.249Z,2.00
2022-08-29T03:05:09.189Z,1.90
2022-08-29T03:06:09.190Z,1.90
2022-08-29T03:07:09.257Z,2.00
2022-08-29T03:08:09.191Z,2.20
2022-08-29T03:09:09.177Z,1.90
2022-08-29T03:10:09.145Z,2.10
2022-08-29T03:11:09.130Z,2.40
2022-08-29T03:12:09.112Z,2.10
2022-08-29T03:13:09.087Z,2.20
2022-08-29T03:14:09.117Z,2.00
2022-08-29T03:15:09.070Z,2.20
2022-08-29T03:16:09.092Z,2.20
2022-08-29T03:17:09.039Z,2.40
2022-08-29T03:18:09.021Z,2.00
2022-08-29T03:19:09.024Z,2.10
2022-08-29T03:20:09.031Z,2.10
2022-08-29T03:21:09.042Z,2.30
2022-08-29T03:22:08.983Z,2.20
2022-08-29T03:23:09.379Z,2.20
2022-08-29T03:24:08.970Z,2.20
2022-08-29T03:25:09.009Z,2.00
2022-08-29T03:26:08.948Z,2.10
2022-08-29T03:27:08.909Z,2.30
2022-08-29T03:28:08.909Z,2.10
2022-08-29T03:29:08.907Z,2.20
2022-08-29T03:30:10.822Z,2.80
2022-08-29T03:31:08.987Z,2.20
2022-08-29T03:32:08.866Z,1.90
2022-08-29T03:33:11.817Z,2.40
2022-08-29T03:34:08.846Z,2.00
2022-08-29T03:35:08.807Z,2.00
2022-08-29T03:36:13.993Z,2.30
2022-08-29T03:37:08.820Z,2.50
2022-08-29T03:38:08.782Z,2.30
2022-08-29T03:39:08.861Z,2.50
2022-08-29T03:40:08.834Z,2.00
2022-08-29T03:41:08.766Z,2.50
2022-08-29T03:42:08.715Z,1.80
2022-08-29T03:43:08.697Z,2.20
2022-08-29T03:44:08.686Z,2.10
2022-08-29T03:45:08.675Z,2.00
2022-08-29T03:46:08.723Z,2.10
2022-08-29T03:47:08.639Z,2.00
2022-08-29T03:48:08.623Z,1.90
2022-08-29T03:49:08.741Z,2.30
2022-08-29T03:50:08.639Z,1.90
2022-08-29T03:51:08.589Z,2.40
2022-08-29T03:52:08.588Z,1.90
2022-08-29T03:53:08.554Z,2.30
2022-08-29T03:54:08.571Z,2.20
2022-08-29T03:55:08.593Z,1.90
2022-08-29T03:56:08.547Z,2.10
2022-08-29T03:57:08.585Z,2.10
2022-08-29T03:58:08.605Z,2.00
2022-08-29T03:59:08.515Z,2.00
2022-08-29T04:00:08.498Z,2.90
2022-08-29T04:01:08.456Z,2.10
2022-08-29T04:02:08.603Z,2.20
2022-08-29T04:03:08.538Z,2.20
2022-08-29T04:04:08.434Z,2.30
2022-08-29T04:05:08.750Z,2.30
2022-08-29T04:06:08.391Z,2.40
2022-08-29T04:07:08.424Z,2.40
2022-08-29T04:08:08.586Z,2.50
2022-08-29T04:09:08.365Z,2.30
2022-08-29T04:10:08.340Z,2.50
2022-08-29T04:11:08.331Z,2.10
2022-08-29T04:12:08.301Z,2.20
2022-08-29T04:13:08.323Z,2.10
2022-08-29T04:14:08.294Z,2.10
2022-08-29T04:15:08.306Z,2.30
2022-08-29T04:16:08.362Z,1.90
2022-08-29T04:17:08.245Z,2.40
2022-08-29T04:18:08.295Z,2.30
2022-08-29T04:19:08.937Z,2.50
2022-08-29T04:20:08.233Z,2.10
2022-08-29T04:21:08.207Z,2.40
2022-08-29T04:22:08.201Z,2.00
2022-08-29T04:23:08.198Z,2.50
2022-08-29T04:24:08.181Z,2.20
2022-08-29T04:25:08.157Z,2.20
2022-08-29T04:26:31.724Z,2.10
2022-08-29T04:27:08.264Z,2.10
2022-08-29T04:28:08.124Z,2.40
2022-08-29T04:29:08.095Z,2.30
2022-08-29T04:30:08.426Z,2.40
2022-08-29T04:31:08.116Z,2.40
2022-08-29T04:32:08.060Z,2.50
2022-08-29T04:33:08.065Z,2.20
2022-08-29T04:34:08.032Z,2.30
2022-08-29T04:35:08.068Z,2.50
2022-08-29T04:36:10.889Z,2.10
2022-08-29T04:37:08.178Z,2.30
2022-08-29T04:38:08.067Z,2.20
2022-08-29T04:39:07.974Z,2.20
2022-08-29T04:40:08.128Z,2.60
2022-08-29T04:41:07.942Z,2.50
2022-08-29T04:42:07.944Z,2.20
2022-08-29T04:43:07.930Z,2.20
2022-08-29T04:44:07.965Z,2.40
2022-08-29T04:45:07.891Z,2.20
2022-08-29T04:46:08.000Z,2.80
2022-08-29T04:47:07.881Z,2.30
2022-08-29T04:48:07.880Z,2.40
2022-08-29T04:49:07.884Z,2.10
2022-08-29T04:50:07.820Z,2.20
2022-08-29T04:51:07.809Z,2.70
2022-08-29T04:52:07.817Z,2.50
2022-08-29T04:53:07.786Z,2.80
2022-08-29T04:54:07.767Z,2.20
2022-08-29T04:55:07.756Z,2.10
2022-08-29T04:56:07.756Z,2.30
2022-08-29T04:57:07.762Z,2.00
2022-08-29T04:58:07.789Z,2.30
2022-08-29T04:59:07.713Z,2.10
2022-08-29T05:00:07.700Z,2.00
2022-08-29T05:01:07.696Z,2.50
2022-08-29T05:02:07.696Z,2.40
2022-08-29T05:03:07.877Z,2.20
2022-08-29T05:04:10.253Z,2.40
2022-08-29T05:05:07.689Z,2.20
2022-08-29T05:06:07.632Z,2.40
2022-08-29T05:07:07.631Z,2.60
2022-08-29T05:08:08.315Z,2.10
2022-08-29T05:09:07.593Z,2.70
2022-08-29T05:10:07.574Z,2.60
2022-08-29T05:11:07.816Z,2.00
2022-08-29T05:12:10.228Z,2.50
2022-08-29T05:13:07.538Z,2.40
2022-08-29T05:14:07.567Z,2.40
2022-08-29T05:15:07.499Z,2.50
2022-08-29T05:16:07.520Z,2.30
2022-08-29T05:17:07.580Z,2.40
2022-08-29T05:18:07.465Z,2.30
2022-08-29T05:19:08.427Z,2.20
2022-08-29T05:20:07.452Z,2.40
2022-08-29T05:21:07.414Z,2.40
2022-08-29T05:22:07.525Z,2.50
2022-08-29T05:23:07.439Z,2.60
2022-08-29T05:24:07.385Z,2.50
2022-08-29T05:25:07.372Z,2.30
2022-08-29T05:26:07.385Z,2.50
2022-08-29T05:27:07.410Z,2.40
2022-08-29T05:28:07.387Z,2.30
2022-08-29T05:29:08.737Z,2.60
2022-08-29T05:30:07.417Z,2.10
2022-08-29T05:31:10.731Z,2.90
2022-08-29T05:32:07.291Z,2.20
2022-08-29T05:33:07.301Z,2.30
2022-08-29T05:34:11.304Z,2.40
2022-08-29T05:35:07.245Z,2.50
2022-08-29T05:36:07.215Z,2.10
2022-08-29T05:37:07.199Z,2.10
2022-08-29T05:38:09.325Z,2.50
2022-08-29T05:39:07.216Z,2.00
2022-08-29T05:40:07.227Z,2.20
2022-08-29T05:41:07.154Z,2.70
2022-08-29T05:42:07.219Z,2.20
2022-08-29T05:43:07.161Z,2.90
2022-08-29T05:44:07.155Z,2.90
2022-08-29T05:45:07.172Z,2.30
2022-08-29T05:46:07.175Z,2.10
2022-08-29T05:47:07.079Z,2.60
2022-08-29T05:48:07.197Z,2.30
2022-08-29T05:49:07.066Z,2.30
2022-08-29T05:50:07.097Z,2.40
2022-08-29T05:51:07.130Z,2.70
2022-08-29T05:52:07.001Z,2.40
2022-08-29T05:53:07.009Z,2.70
2022-08-29T05:54:07.083Z,2.60
2022-08-29T05:55:06.999Z,2.40
2022-08-29T05:56:07.004Z,2.50
2022-08-29T05:57:06.990Z,2.30
2022-08-29T05:58:07.062Z,2.60
2022-08-29T05:59:06.941Z,2.50
2022-08-29T06:00:06.992Z,2.30
2022-08-29T06:01:06.887Z,2.30
2022-08-29T06:02:07.060Z,2.60
2022-08-29T06:03:07.017Z,2.30
2022-08-29T06:04:06.919Z,2.50
2022-08-29T06:05:07.203Z,2.60
2022-08-29T06:06:06.828Z,2.50
2022-08-29T06:07:06.808Z,2.40
2022-08-29T06:08:06.807Z,2.40
2022-08-29T06:09:06.974Z,2.30
2022-08-29T06:10:08.292Z,2.20
2022-08-29T06:11:06.791Z,2.60
2022-08-29T06:12:06.765Z,2.50
2022-08-29T06:13:06.736Z,2.40
2022-08-29T06:14:06.743Z,2.60
2022-08-29T06:15:06.758Z,2.40
2022-08-29T06:16:06.780Z,2.20
2022-08-29T06:17:07.989Z,2.50
2022-08-29T06:18:06.696Z,2.10
2022-08-29T06:19:06.662Z,2.20
2022-08-29T06:20:06.664Z,2.60
2022-08-29T06:21:06.643Z,2.60
2022-08-29T06:22:09.950Z,2.70
2022-08-29T06:23:06.633Z,2.30
2022-08-29T06:24:06.620Z,2.20
2022-08-29T06:25:22.033Z,2.30
2022-08-29T06:26:06.571Z,2.40
2022-08-29T06:27:06.575Z,2.20
2022-08-29T06:28:06.579Z,2.80
2022-08-29T06:29:06.525Z,2.40
2022-08-29T06:30:06.548Z,2.60
2022-08-29T06:31:06.530Z,2.40
2022-08-29T06:32:06.508Z,2.80
2022-08-29T06:33:06.494Z,2.40
2022-08-29T06:34:06.462Z,2.40
2022-08-29T06:35:06.461Z,2.80
2022-08-29T06:36:06.478Z,2.50
2022-08-29T06:37:06.441Z,2.30
2022-08-29T06:38:09.681Z,2.60
2022-08-29T06:39:06.424Z,2.40
2022-08-29T06:40:07.646Z,2.40
2022-08-29T06:41:06.405Z,2.50
2022-08-29T06:42:06.389Z,2.50
2022-08-29T06:43:06.362Z,2.40
2022-08-29T06:44:06.376Z,2.60
2022-08-29T06:45:06.328Z,2.30
2022-08-29T06:46:06.394Z,2.50
2022-08-29T06:47:06.352Z,2.40
2022-08-29T06:48:06.300Z,2.20
2022-08-29T06:49:06.297Z,2.40
2022-08-29T06:50:06.259Z,2.50
2022-08-29T06:51:06.235Z,2.70
2022-08-29T06:52:06.238Z,2.20
2022-08-29T06:53:26.553Z,2.10
2022-08-29T06:54:07.094Z,2.70
2022-08-29T06:55:06.174Z,2.50
2022-08-29T06:56:06.181Z,2.30
2022-08-29T06:57:06.207Z,2.50
2022-08-29T06:58:06.139Z,2.50
2022-08-29T06:59:06.136Z,2.70
2022-08-29T07:00:14.298Z,2.70
2022-08-29T07:01:06.263Z,2.50
2022-08-29T07:02:06.100Z,2.00
2022-08-29T07:03:06.170Z,2.20
2022-08-29T07:04:06.075Z,2.50
2022-08-29T07:05:06.077Z,2.30
2022-08-29T07:06:06.241Z,2.20
2022-08-29T07:07:06.208Z,2.60
2022-08-29T07:08:06.010Z,1.90
2022-08-29T07:09:06.008Z,2.20
2022-08-29T07:10:05.974Z,2.30
2022-08-29T07:11:06.779Z,2.10
2022-08-29T07:12:05.975Z,2.20
2022-08-29T07:13:05.985Z,2.10
2022-08-29T07:14:05.951Z,2.20
2022-08-29T07:15:05.931Z,2.10
2022-08-29T07:16:06.038Z,2.40
2022-08-29T07:17:05.892Z,2.10
2022-08-29T07:18:05.931Z,2.30
2022-08-29T07:19:05.885Z,2.30
2022-08-29T07:20:05.883Z,2.50
2022-08-29T07:21:05.833Z,2.60
2022-08-29T07:22:05.838Z,2.50
2022-08-29T07:23:05.860Z,2.00
2022-08-29T07:24:06.652Z,2.50
2022-08-29T07:25:05.794Z,2.70
2022-08-29T07:26:05.797Z,2.20
2022-08-29T07:27:05.818Z,2.80
2022-08-29T07:28:05.762Z,2.70
2022-08-29T07:29:05.774Z,2.40
2022-08-29T07:30:05.717Z,2.50
2022-08-29T07:31:05.839Z,2.40
2022-08-29T07:32:05.894Z,2.50
2022-08-29T07:33:05.677Z,3.20
2022-08-29T07:34:05.698Z,2.20
2022-08-29T07:35:05.694Z,2.60
2022-08-29T07:36:05.632Z,2.70
2022-08-29T07:37:06.150Z,2.80
2022-08-29T07:38:05.634Z,2.90
2022-08-29T07:39:05.604Z,2.90
2022-08-29T07:40:05.656Z,2.60
2022-08-29T07:41:05.582Z,2.50
2022-08-29T07:42:05.634Z,2.50
2022-08-29T07:43:05.613Z,2.60
2022-08-29T07:44:05.557Z,2.30
2022-08-29T07:45:05.607Z,3.00
2022-08-29T07:46:05.601Z,2.40
2022-08-29T07:47:05.512Z,2.60
2022-08-29T07:48:07.866Z,2.50
2022-08-29T07:49:05.496Z,2.70
2022-08-29T07:50:06.281Z,2.90
2022-08-29T07:51:10.250Z,2.80
2022-08-29T07:52:05.523Z,2.70
2022-08-29T07:53:05.426Z,3.00
2022-08-29T07:54:05.411Z,2.90
2022-08-29T07:55:05.399Z,3.10
2022-08-29T07:56:05.499Z,2.60
2022-08-29T07:57:05.370Z,2.90
2022-08-29T07:58:05.422Z,2.60
2022-08-29T07:59:05.385Z,2.50
2022-08-29T08:00:05.320Z,2.80
2022-08-29T08:01:05.361Z,2.60
2022-08-29T08:02:05.385Z,2.40
2022-08-29T08:03:05.355Z,2.60
2022-08-29T08:04:05.293Z,2.40
2022-08-29T08:05:06.760Z,2.80
2022-08-29T08:06:07.059Z,2.60
2022-08-29T08:07:05.258Z,2.70
2022-08-29T08:08:08.698Z,2.70
2022-08-29T08:09:05.241Z,2.50
2022-08-29T08:10:05.268Z,3.00
2022-08-29T08:11:05.190Z,2.90
2022-08-29T08:12:08.301Z,2.70
2022-08-29T08:13:05.163Z,2.50
2022-08-29T08:14:05.158Z,2.90
2022-08-29T08:15:05.214Z,2.60
2022-08-29T08:16:05.135Z,2.60
2022-08-29T08:17:05.115Z,2.90
2022-08-29T08:18:05.129Z,2.60
2022-08-29T08:19:05.099Z,2.80
2022-08-29T08:20:05.076Z,2.30
2022-08-29T08:21:05.147Z,3.20
2022-08-29T08:22:05.054Z,2.80
2022-08-29T08:23:09.113Z,2.30
2022-08-29T08:24:05.076Z,2.50
2022-08-29T08:25:05.031Z,2.50
2022-08-29T08:26:04.997Z,2.50
2022-08-29T08:27:05.018Z,2.50
2022-08-29T08:28:05.015Z,2.80
2022-08-29T08:29:04.952Z,2.90
2022-08-29T08:30:04.987Z,2.40
2022-08-29T08:31:06.390Z,2.70
2022-08-29T08:32:04.941Z,2.70
2022-08-29T08:33:04.893Z,2.80
2022-08-29T08:34:04.903Z,2.60
2022-08-29T08:35:04.886Z,2.80
2022-08-29T08:36:04.880Z,2.50
2022-08-29T08:37:04.889Z,2.70
2022-08-29T08:38:04.888Z,2.50
2022-08-29T08:39:04.830Z,2.60
2022-08-29T08:40:04.866Z,2.70
2022-08-29T08:41:04.792Z,2.50
2022-08-29T08:42:04.811Z,2.50
2022-08-29T08:43:04.757Z,2.30
2022-08-29T08:44:04.765Z,2.10
2022-08-29T08:45:04.765Z,2.30
2022-08-29T08:46:04.762Z,2.40
2022-08-29T08:47:04.733Z,3.10
2022-08-29T08:48:04.712Z,2.60
2022-08-29T08:49:04.777Z,2.90
2022-08-29T08:50:04.722Z,2.50
2022-08-29T08:51:04.666Z,2.20
2022-08-29T08:52:04.659Z,2.60
2022-08-29T08:53:04.693Z,2.50
2022-08-29T08:54:04.662Z,2.30
2022-08-29T08:55:04.640Z,2.90
2022-08-29T08:56:04.600Z,2.70
2022-08-29T08:57:04.594Z,2.50
2022-08-29T08:58:04.612Z,2.70
2022-08-29T08:59:04.549Z,2.60
2022-08-29T09:00:04.579Z,2.60
2022-08-29T09:01:04.618Z,2.70
2022-08-29T09:02:07.232Z,3.00
2022-08-29T09:03:04.522Z,2.80
2022-08-29T09:04:04.491Z,2.50
2022-08-29T09:05:04.485Z,2.60
2022-08-29T09:06:04.485Z,2.70
2022-08-29T09:07:04.479Z,3.00
2022-08-29T09:08:04.447Z,2.40
2022-08-29T09:09:04.447Z,2.60
2022-08-29T09:10:04.452Z,2.30
2022-08-29T09:11:04.402Z,2.70
2022-08-29T09:12:04.403Z,2.60
2022-08-29T09:13:04.377Z,2.60
2022-08-29T09:14:04.359Z,2.60
2022-08-29T09:15:04.769Z,2.90
2022-08-29T09:16:04.322Z,2.70
2022-08-29T09:17:04.356Z,2.60
2022-08-29T09:18:04.311Z,2.70
2022-08-29T09:19:04.291Z,2.70
2022-08-29T09:20:04.301Z,2.60
2022-08-29T09:21:23.765Z,2.50
2022-08-29T09:22:04.284Z,3.00
2022-08-29T09:23:04.247Z,3.00
2022-08-29T09:24:04.227Z,2.60
2022-08-29T09:25:04.680Z,3.10
2022-08-29T09:26:04.222Z,2.30
2022-08-29T09:27:04.187Z,2.70
2022-08-29T09:28:04.199Z,2.90
2022-08-29T09:29:04.157Z,2.70
2022-08-29T09:30:04.171Z,2.60
2022-08-29T09:31:04.140Z,2.60
2022-08-29T09:32:04.223Z,3.00
2022-08-29T09:33:04.789Z,2.90
2022-08-29T09:34:04.097Z,2.30
2022-08-29T09:35:08.891Z,3.00
2022-08-29T09:36:04.196Z,2.90
2022-08-29T09:37:04.068Z,2.90
2022-08-29T09:38:04.123Z,2.80
2022-08-29T09:39:04.112Z,2.60
2022-08-29T09:40:04.059Z,2.80
2022-08-29T09:41:04.132Z,3.00
2022-08-29T09:42:04.001Z,2.80
2022-08-29T09:43:03.989Z,2.90
2022-08-29T09:44:03.993Z,2.90
2022-08-29T09:45:03.952Z,3.00
2022-08-29T09:46:04.011Z,3.00
2022-08-29T09:47:03.948Z,3.00
2022-08-29T09:48:03.903Z,2.80
2022-08-29T09:49:03.923Z,2.70
2022-08-29T09:50:03.908Z,3.20
2022-08-29T09:51:03.857Z,2.80
2022-08-29T09:52:03.931Z,3.40
2022-08-29T09:53:08.045Z,3.20
2022-08-29T09:54:03.887Z,2.60
2022-08-29T09:55:03.818Z,2.70
2022-08-29T09:56:03.816Z,2.90
2022-08-29T09:57:03.808Z,3.20
2022-08-29T09:58:03.788Z,2.80
2022-08-29T09:59:03.795Z,3.30
2022-08-29T10:00:03.757Z,2.70
2022-08-29T10:01:04.542Z,2.80
2022-08-29T10:02:03.826Z,3.00
2022-08-29T10:03:03.732Z,3.30
2022-08-29T10:04:03.723Z,3.10
2022-08-29T10:05:03.699Z,2.70
2022-08-29T10:06:03.790Z,3.00
2022-08-29T10:07:04.312Z,2.80
2022-08-29T10:08:03.669Z,3.10
2022-08-29T10:09:03.673Z,2.70
2022-08-29T10:10:03.668Z,3.60
2022-08-29T10:11:03.607Z,3.10
2022-08-29T10:12:03.604Z,3.40
2022-08-29T10:13:03.594Z,3.60
2022-08-29T10:14:03.597Z,3.30
2022-08-29T10:15:03.609Z,2.80
2022-08-29T10:16:03.654Z,2.80
2022-08-29T10:17:03.603Z,3.00
2022-08-29T10:18:03.589Z,2.80
2022-08-29T10:19:03.518Z,2.80
2022-08-29T10:20:03.524Z,3.10
2022-08-29T10:21:03.661Z,3.10
2022-08-29T10:22:03.554Z,3.00
2022-08-29T10:23:03.668Z,3.10
2022-08-29T10:24:03.445Z,2.90
2022-08-29T10:25:03.466Z,3.00
2022-08-29T10:26:03.431Z,2.80
2022-08-29T10:27:03.444Z,3.00
2022-08-29T10:28:03.391Z,2.90
2022-08-29T10:29:03.436Z,3.10
2022-08-29T10:30:03.426Z,2.90
2022-08-29T10:31:03.379Z,3.40
2022-08-29T10:32:03.792Z,3.50
2022-08-29T10:33:03.453Z,3.10
2022-08-29T10:34:03.329Z,3.30
2022-08-29T10:35:03.332Z,3.10
2022-08-29T10:36:03.301Z,3.00
2022-08-29T10:37:03.523Z,2.80
2022-08-29T10:38:03.264Z,3.00
2022-08-29T10:39:03.294Z,2.80
2022-08-29T10:40:03.381Z,2.80
2022-08-29T10:41:03.257Z,2.90
2022-08-29T10:42:06.228Z,3.20
2022-08-29T10:43:03.209Z,2.80
2022-08-29T10:44:03.270Z,2.90
2022-08-29T10:45:03.207Z,2.80
2022-08-29T10:46:03.203Z,2.80
2022-08-29T10:47:03.308Z,2.80
2022-08-29T10:48:03.140Z,3.30
2022-08-29T10:49:03.166Z,3.20
2022-08-29T10:50:03.107Z,3.00
2022-08-29T10:51:03.185Z,3.10
2022-08-29T10:52:03.103Z,3.10
2022-08-29T10:53:03.181Z,3.30
2022-08-29T10:54:03.131Z,2.60
2022-08-29T10:55:03.095Z,3.00
2022-08-29T10:56:06.608Z,2.70
2022-08-29T10:57:03.178Z,2.70
2022-08-29T10:58:03.039Z,2.90
2022-08-29T10:59:02.994Z,3.10
2022-08-29T11:00:03.431Z,3.30
2022-08-29T11:01:08.338Z,2.80
2022-08-29T11:02:02.957Z,3.20
2022-08-29T11:03:02.969Z,3.10
2022-08-29T11:04:02.977Z,3.00
2022-08-29T11:05:03.029Z,3.10
2022-08-29T11:06:02.909Z,3.00
2022-08-29T11:07:02.933Z,2.80
2022-08-29T11:08:02.867Z,2.70
2022-08-29T11:09:02.983Z,2.70
2022-08-29T11:10:02.867Z,3.40
2022-08-29T11:11:02.850Z,2.80
2022-08-29T11:12:03.245Z,2.80
2022-08-29T11:13:02.832Z,2.90
2022-08-29T11:14:05.705Z,3.00
2022-08-29T11:15:02.831Z,3.50
2022-08-29T11:16:02.850Z,2.70
2022-08-29T11:17:03.217Z,3.00
2022-08-29T11:18:02.855Z,3.00
2022-08-29T11:19:02.806Z,3.10
2022-08-29T11:20:02.766Z,2.70
2022-08-29T11:21:02.726Z,2.90
2022-08-29T11:22:02.700Z,2.90
2022-08-29T11:23:02.684Z,3.10
2022-08-29T11:24:02.697Z,3.00
2022-08-29T11:25:02.799Z,3.00
2022-08-29T11:26:02.679Z,3.50
2022-08-29T11:27:02.637Z,2.60
2022-08-29T11:28:02.854Z,3.10
2022-08-29T11:29:02.603Z,3.00
2022-08-29T11:30:02.653Z,2.80
2022-08-29T11:31:02.739Z,3.10
2022-08-29T11:32:02.590Z,3.40
2022-08-29T11:33:02.555Z,3.20
2022-08-29T11:34:02.538Z,2.70
2022-08-29T11:35:02.536Z,2.60
2022-08-29T11:36:04.958Z,3.40
2022-08-29T11:37:02.556Z,3.50
2022-08-29T11:38:02.499Z,2.60
2022-08-29T11:39:02.470Z,3.10
2022-08-29T11:40:02.656Z,2.90
2022-08-29T11:42:02.556Z,3.20
2022-08-29T11:43:02.455Z,3.90
2022-08-29T11:44:02.430Z,3.00
2022-08-29T11:45:02.402Z,3.00
2022-08-29T11:46:02.452Z,3.40
2022-08-29T11:47:02.488Z,2.90
2022-08-29T11:48:02.382Z,3.20
2022-08-29T11:49:02.380Z,3.10
2022-08-29T11:50:02.369Z,2.70
2022-08-29T11:51:02.357Z,2.80
2022-08-29T11:52:02.317Z,3.50
2022-08-29T11:53:02.326Z,3.30
2022-08-29T11:54:02.327Z,3.30
2022-08-29T11:55:02.265Z,2.80
2022-08-29T11:56:02.295Z,3.40
2022-08-29T11:57:02.334Z,3.20
2022-08-29T11:58:05.765Z,3.00
2022-08-29T11:59:02.427Z,2.80
2022-08-29T12:00:02.301Z,3.10
2022-08-29T12:01:03.317Z,2.60
2022-08-29T12:02:02.267Z,2.70
2022-08-29T12:03:04.390Z,3.10
2022-08-29T12:04:02.166Z,3.00
2022-08-29T12:05:02.181Z,3.10
2022-08-29T12:06:02.139Z,2.70
2022-08-29T12:07:02.131Z,2.70
2022-08-29T12:08:14.405Z,2.80
2022-08-29T12:09:05.296Z,2.60
2022-08-29T12:10:02.151Z,3.00
2022-08-29T12:11:02.104Z,2.90
2022-08-29T12:12:02.040Z,2.70
2022-08-29T12:13:02.242Z,2.70
2022-08-29T12:14:03.607Z,2.80
2022-08-29T12:15:02.034Z,3.00
2022-08-29T12:16:02.229Z,2.90
2022-08-29T12:17:01.994Z,2.50
2022-08-29T12:18:03.726Z,2.50
2022-08-29T12:19:01.959Z,2.90
2022-08-29T12:20:02.014Z,3.00
2022-08-29T12:21:01.954Z,2.90
2022-08-29T12:22:01.921Z,3.30
2022-08-29T12:23:01.998Z,2.60
2022-08-29T12:24:01.890Z,2.90
2022-08-29T12:25:02.000Z,2.90
2022-08-29T12:26:21.640Z,3.00
2022-08-29T12:27:01.917Z,2.80
2022-08-29T12:28:01.940Z,2.60
2022-08-29T12:29:01.946Z,2.80
2022-08-29T12:30:01.869Z,2.90
2022-08-29T12:31:01.809Z,2.90
2022-08-29T12:32:18.832Z,2.80
2022-08-29T12:33:01.785Z,2.90
2022-08-29T12:34:01.812Z,3.00
2022-08-29T12:35:01.750Z,3.30
2022-08-29T12:36:01.778Z,2.90
2022-08-29T12:37:01.767Z,2.80
2022-08-29T12:38:03.326Z,3.00
2022-08-29T12:39:01.815Z,2.90
2022-08-29T12:40:01.812Z,2.70
2022-08-29T12:41:01.919Z,3.00
2022-08-29T12:42:01.674Z,2.80
2022-08-29T12:43:01.745Z,2.80
2022-08-29T12:44:03.905Z,2.70
2022-08-29T12:45:01.625Z,2.60
2022-08-29T12:46:01.683Z,3.00
2022-08-29T12:47:01.662Z,2.80
2022-08-29T12:48:01.864Z,2.80
2022-08-29T12:49:01.571Z,3.00
2022-08-29T12:50:01.607Z,2.80
2022-08-29T12:51:01.581Z,2.50
2022-08-29T12:52:01.581Z,2.70
2022-08-29T12:53:01.542Z,3.40
2022-08-29T12:54:01.519Z,3.00
2022-08-29T12:55:01.527Z,3.00
2022-08-29T12:56:01.493Z,2.90
2022-08-29T12:57:01.487Z,3.00
2022-08-29T12:58:01.918Z,2.80
2022-08-29T12:59:01.485Z,2.90
2022-08-29T13:00:01.461Z,2.80
2022-08-29T13:01:01.558Z,3.00
2022-08-29T13:02:01.456Z,2.90
2022-08-29T13:03:01.437Z,2.80
2022-08-29T13:04:01.401Z,3.00
2022-08-29T13:05:01.372Z,2.90
2022-08-29T13:06:01.380Z,2.90
2022-08-29T13:07:01.415Z,3.00
2022-08-29T13:08:01.360Z,2.50
2022-08-29T13:09:01.323Z,2.60
2022-08-29T13:10:01.377Z,2.90
2022-08-29T13:11:01.337Z,3.10
2022-08-29T13:12:01.299Z,2.60
2022-08-29T13:13:01.368Z,2.80
2022-08-29T13:14:01.325Z,2.60
2022-08-29T13:15:01.272Z,2.80
2022-08-29T13:16:01.332Z,2.80
2022-08-29T13:17:01.339Z,2.80
2022-08-29T13:18:01.234Z,2.60
2022-08-29T13:19:10.839Z,2.80